Time;durP1;ratioP1;P1;durP2;ratioP2;P2;SDS_P1;SDS_P2;PMS_P1;PMS_P2;Temp;Humidity;BMP_temperature;BMP_pressure;BME280_temperature;BME280_humidity;BME280_pressure;Samples;Min_cycle;Max_cycle;Signal;HPM_P1;HPM_P2
2022/04/13 00:02:35;;;;;;;6.50;3.17;;;;;;;11.26;79.43;101319.00;10191444;28;20112;-66
2022/04/13 00:07:31;;;;;;;8.75;4.00;;;;;;;11.23;79.16;101314.13;10184532;28;20125;-66
2022/04/13 00:12:28;;;;;;;6.60;2.67;;;;;;;11.28;80.11;101300.31;10189760;28;20081;-66
2022/04/13 00:17:24;;;;;;;6.55;2.65;;;;;;;11.15;82.45;101301.97;10181126;28;20089;-66
2022/04/13 00:22:21;;;;;;;5.95;2.65;;;;;;;11.05;78.00;101286.59;10190639;28;20813;-64
2022/04/13 00:27:17;;;;;;;8.27;3.03;;;;;;;11.05;78.77;101278.38;10185906;28;20046;-63
2022/04/13 00:32:14;;;;;;;6.57;2.88;;;;;;;10.98;77.02;101275.25;10186191;28;20050;-63
2022/04/13 00:37:10;;;;;;;10.60;3.83;;;;;;;11.04;79.49;101279.50;10184963;28;20046;-63
2022/04/13 00:42:07;;;;;;;7.22;3.25;;;;;;;11.07;80.25;101278.88;10187529;28;20077;-65
2022/04/13 00:47:07;;;;;;;6.18;3.03;;;;;;;11.05;81.08;101270.19;10195834;28;20138;-65
2022/04/13 00:52:05;;;;;;;11.48;3.45;;;;;;;11.05;78.82;101261.97;10195936;28;20046;-63
2022/04/13 00:57:09;;;;;;;8.13;2.78;;;;;;;11.05;77.37;101266.63;10194986;28;20100;-64
2022/04/13 01:02:07;;;;;;;6.50;2.97;;;;;;;11.10;74.22;101278.28;10192452;28;22230;-63
2022/04/13 01:07:09;;;;;;;10.20;3.40;;;;;;;10.99;74.11;101265.91;10187253;28;20471;-62
2022/04/13 01:12:06;;;;;;;7.60;3.42;;;;;;;10.90;74.48;101273.22;10196245;28;20050;-63
2022/04/13 01:17:03;;;;;;;7.00;3.45;;;;;;;10.93;77.58;101272.59;10188677;28;20073;-63
2022/04/13 01:22:28;;;;;;;8.38;3.47;;;;;;;10.91;78.36;101269.41;10196376;28;20050;-65
2022/04/13 01:27:26;;;;;;;8.40;2.80;;;;;;;10.87;75.80;101274.66;10194526;28;20661;-65
2022/04/13 01:32:22;;;;;;;5.60;3.03;;;;;;;10.87;74.67;101274.66;10194972;28;20089;-65
2022/04/13 01:37:20;;;;;;;8.32;3.80;;;;;;;10.74;80.56;101270.84;10188976;28;20054;-65
2022/04/13 01:42:17;;;;;;;6.93;2.90;;;;;;;10.68;86.36;101258.38;10193096;28;20537;-65
2022/04/13 01:47:13;;;;;;;8.20;3.60;;;;;;;10.84;79.56;101258.06;10194648;28;20105;-65
2022/04/13 01:52:11;;;;;;;7.70;3.45;;;;;;;10.84;79.51;101253.41;10191279;28;20112;-65
2022/04/13 01:57:07;;;;;;;6.57;3.25;;;;;;;10.90;77.30;101246.69;10189163;28;20104;-64
2022/04/13 02:02:04;;;;;;;7.30;3.53;;;;;;;10.88;75.59;101259.03;10185238;28;20107;-64
2022/04/13 02:07:01;;;;;;;6.97;3.15;;;;;;;10.92;76.54;101262.78;10187478;28;20057;-64
2022/04/13 02:11:58;;;;;;;6.00;3.15;;;;;;;10.78;81.11;101259.28;10182157;28;20472;-63
2022/04/13 02:16:54;;;;;;;9.20;3.60;;;;;;;10.80;85.37;101257.84;10190932;28;20062;-63
2022/04/13 02:21:51;;;;;;;11.23;4.13;;;;;;;10.71;85.57;101251.47;10191042;28;20414;-65
2022/04/13 02:26:48;;;;;;;6.97;3.67;;;;;;;10.61;87.87;101238.84;10186042;28;20053;-64
2022/04/13 02:31:44;;;;;;;8.88;3.40;;;;;;;10.44;86.00;101233.16;10188750;28;20050;-64
2022/04/13 02:36:41;;;;;;;7.88;3.35;;;;;;;10.50;89.24;101242.88;10186300;28;20076;-65
2022/04/13 02:41:39;;;;;;;7.68;3.22;;;;;;;10.52;90.15;101240.66;10190231;28;20085;-65
2022/04/13 02:46:35;;;;;;;7.03;3.75;;;;;;;10.63;88.13;101239.34;10188835;28;20085;-65
2022/04/13 02:51:32;;;;;;;8.43;4.03;;;;;;;10.51;86.55;101233.56;10186869;28;20129;-65
2022/04/13 02:56:28;;;;;;;7.05;3.13;;;;;;;10.72;87.55;101240.25;10189813;28;20078;-65
2022/04/13 03:01:25;;;;;;;8.13;3.80;;;;;;;10.72;86.65;101229.31;10187653;28;20050;-63
2022/04/13 03:06:22;;;;;;;8.10;3.65;;;;;;;10.77;88.99;101233.03;10182226;28;20435;-63
2022/04/13 03:11:18;;;;;;;10.77;3.72;;;;;;;10.77;90.85;101241.22;10193344;28;20046;-63
2022/04/13 03:16:15;;;;;;;8.05;3.58;;;;;;;10.83;83.62;101240.81;10178279;28;20137;-62
2022/04/13 03:21:11;;;;;;;7.82;3.35;;;;;;;10.74;85.07;101243.50;10171667;28;20049;-62
2022/04/13 03:26:07;;;;;;;7.68;3.30;;;;;;;10.74;84.44;101238.03;10166348;28;20164;-63
2022/04/13 03:31:04;;;;;;;10.65;4.07;;;;;;;10.76;85.80;101243.16;10167641;28;20076;-64
2022/04/13 03:36:01;;;;;;;8.15;3.58;;;;;;;10.65;91.46;101250.78;10180988;28;20125;-63
2022/04/13 03:40:57;;;;;;;9.65;3.72;;;;;;;10.65;89.51;101255.44;10171685;28;20132;-64
2022/04/13 03:45:54;;;;;;;10.65;4.05;;;;;;;10.73;85.54;101241.84;10174850;28;20107;-64
2022/04/13 03:50:53;;;;;;;8.52;4.05;;;;;;;10.73;82.61;101252.78;10178406;28;20119;-64
2022/04/13 03:55:49;;;;;;;7.60;4.20;;;;;;;10.76;81.06;101250.56;10184290;28;20077;-64
2022/04/13 04:00:46;;;;;;;8.32;3.83;;;;;;;10.71;79.99;101254.22;10175136;28;20085;-63
2022/04/13 04:05:42;;;;;;;9.75;4.32;;;;;;;10.70;81.11;101247.94;10168132;28;20744;-64
2022/04/13 04:10:39;;;;;;;8.90;4.25;;;;;;;10.66;79.04;101252.41;10169333;28;20109;-64
2022/04/13 04:15:36;;;;;;;13.55;4.38;;;;;;;10.57;80.30;101254.22;10165281;28;20106;-64
2022/04/13 04:20:32;;;;;;;8.10;3.97;;;;;;;10.56;81.73;101251.78;10171542;28;20144;-64
2022/04/13 04:25:29;;;;;;;8.27;3.92;;;;;;;10.59;80.82;101259.41;10158827;28;20046;-64
2022/04/13 04:30:26;;;;;;;9.05;4.75;;;;;;;10.53;80.73;101254.00;10163240;28;20455;-64
2022/04/13 04:35:23;;;;;;;8.05;4.22;;;;;;;10.50;81.66;101262.81;10157256;28;20108;-64
2022/04/13 04:40:19;;;;;;;9.00;4.40;;;;;;;10.43;83.84;101269.81;10151646;28;20567;-64
2022/04/13 04:45:19;;;;;;;10.77;4.68;;;;;;;10.46;83.61;101269.22;10152213;28;20045;-64
2022/04/13 04:50:17;;;;;;;7.30;4.20;;;;;;;10.40;84.89;101264.97;10153019;28;20077;-64
2022/04/13 04:55:16;;;;;;;8.93;4.68;;;;;;;10.42;83.75;101269.03;10150711;28;20224;-64
2022/04/13 05:00:17;;;;;;;10.68;5.15;;;;;;;10.41;82.96;101266.56;10168835;28;20073;-64
2022/04/13 05:05:15;;;;;;;9.65;4.80;;;;;;;10.37;87.12;101271.03;10152434;28;20168;-65
2022/04/13 05:10:12;;;;;;;9.85;5.25;;;;;;;10.23;85.76;101282.72;10157734;28;20144;-64
2022/04/13 05:15:10;;;;;;;9.63;4.45;;;;;;;10.38;85.19;101295.34;10159592;28;20508;-64
2022/04/13 05:20:08;;;;;;;8.63;4.88;;;;;;;10.39;86.38;101301.59;10163597;28;20540;-64
2022/04/13 05:25:09;;;;;;;8.80;4.85;;;;;;;10.34;84.80;101305.25;10160419;28;20058;-64
2022/04/13 05:30:08;;;;;;;10.18;4.88;;;;;;;10.40;86.88;101297.78;10159649;28;20896;-64
2022/04/13 05:35:05;;;;;;;15.65;5.20;;;;;;;10.48;84.67;101310.72;10162281;28;20049;-64
2022/04/13 05:40:02;;;;;;;11.60;5.20;;;;;;;10.51;85.16;101310.09;10182826;28;20488;-64
2022/04/13 05:45:01;;;;;;;12.35;5.35;;;;;;;10.50;85.81;101314.78;10169826;28;20061;-64
2022/04/13 05:49:57;;;;;;;11.38;5.22;;;;;;;10.48;85.34;101316.19;10172662;28;20492;-64
2022/04/13 05:54:54;;;;;;;12.88;5.78;;;;;;;10.52;85.95;101325.41;10169661;28;20042;-64
2022/04/13 05:59:50;;;;;;;10.13;4.90;;;;;;;10.57;85.07;101325.31;10188938;28;20045;-64
2022/04/13 06:04:47;;;;;;;13.90;5.53;;;;;;;10.55;85.59;101322.06;10187389;28;20073;-64
2022/04/13 06:09:43;;;;;;;11.48;5.65;;;;;;;10.61;87.82;101326.34;10191785;28;20072;-64
2022/04/13 06:14:41;;;;;;;11.48;5.28;;;;;;;10.65;87.29;101332.84;10185078;28;20112;-64
2022/04/13 06:19:37;;;;;;;13.93;5.43;;;;;;;10.77;86.51;101339.69;10191783;28;20522;-64
2022/04/13 06:24:34;;;;;;;10.50;5.35;;;;;;;10.94;86.43;101346.19;10190384;28;20076;-64
2022/04/13 06:29:31;;;;;;;13.57;6.47;;;;;;;11.04;84.35;101350.63;10178906;28;20580;-63
2022/04/13 06:34:27;;;;;;;11.07;5.35;;;;;;;11.09;83.79;101352.44;10189431;28;20137;-63
2022/04/13 06:39:23;;;;;;;11.95;5.05;;;;;;;11.20;82.26;101364.00;10189928;28;20086;-64
2022/04/13 06:44:21;;;;;;;12.25;5.90;;;;;;;11.24;83.00;101378.72;10165887;28;20081;-64
2022/04/13 06:49:17;;;;;;;11.32;6.10;;;;;;;11.13;82.80;101378.91;10181747;28;20046;-64
2022/04/13 06:54:14;;;;;;;12.90;6.60;;;;;;;11.13;83.44;101376.16;10190416;28;20096;-64
2022/04/13 06:59:10;;;;;;;12.32;6.15;;;;;;;11.18;82.59;101374.44;10181755;28;20085;-65
2022/04/13 07:04:07;;;;;;;11.68;5.88;;;;;;;11.26;83.95;101373.75;10187335;28;20135;-64
2022/04/13 07:09:04;;;;;;;10.05;5.95;;;;;;;11.40;85.09;101374.53;10189222;28;20073;-64
2022/04/13 07:14:00;;;;;;;9.88;6.20;;;;;;;11.46;85.03;101378.75;10186501;28;20663;-64
2022/04/13 07:18:57;;;;;;;12.20;6.60;;;;;;;11.49;84.30;101383.63;10180406;28;20069;-65
2022/04/13 07:23:54;;;;;;;16.13;6.63;;;;;;;11.48;84.39;101376.53;10174390;28;20128;-64
2022/04/13 07:28:52;;;;;;;11.25;5.63;;;;;;;11.55;88.71;101373.38;10183423;28;20132;-65
2022/04/13 07:33:49;;;;;;;12.57;6.28;;;;;;;11.68;85.34;101379.94;10185666;28;20042;-65
2022/04/13 07:38:46;;;;;;;11.45;5.90;;;;;;;11.71;84.63;101384.78;10185489;28;20145;-64
2022/04/13 07:43:44;;;;;;;12.18;6.30;;;;;;;11.79;84.67;101381.31;10180378;28;20058;-64
2022/04/13 07:48:40;;;;;;;13.38;6.95;;;;;;;11.90;86.93;101388.19;10188245;28;20050;-64
2022/04/13 07:53:37;;;;;;;13.88;6.60;;;;;;;12.02;84.49;101389.56;10175381;28;20050;-64
2022/04/13 07:58:33;;;;;;;17.23;6.50;;;;;;;12.08;84.32;101393.81;10169222;28;20789;-63
2022/04/13 08:03:30;;;;;;;10.95;6.57;;;;;;;12.20;83.51;101396.81;10161474;28;20765;-63
2022/04/13 08:08:31;;;;;;;10.93;5.85;;;;;;;12.34;84.80;101400.28;10162186;28;20060;-63
2022/04/13 08:13:27;;;;;;;13.43;6.60;;;;;;;12.45;82.89;101402.78;10152062;28;20116;-65
2022/04/13 08:18:45;;;;;;;15.65;6.10;;;;;;;12.75;83.05;101396.47;10161755;28;20686;-64
2022/04/13 08:23:41;;;;;;;12.82;7.38;;;;;;;12.95;82.19;101394.28;10175821;28;20128;-63
2022/04/13 08:28:38;;;;;;;15.23;6.70;;;;;;;13.41;83.64;101390.25;10173797;28;20133;-64
2022/04/13 08:33:34;;;;;;;13.55;7.25;;;;;;;13.50;79.53;101396.56;10156538;28;20240;-64
2022/04/13 08:38:30;;;;;;;17.17;7.22;;;;;;;13.70;79.94;101402.59;10165813;28;20507;-64
2022/04/13 08:43:56;;;;;;;14.07;6.30;;;;;;;13.85;81.58;101404.84;10162280;28;20142;-64
2022/04/13 08:48:56;;;;;;;14.77;6.97;;;;;;;13.88;79.73;101415.19;10151650;28;20136;-64
2022/04/13 08:54:31;;;;;;;12.32;6.28;;;;;;;13.95;84.36;101426.53;10165721;28;20152;-64
2022/04/13 08:59:48;;;;;;;10.48;6.38;;;;;;;14.12;82.52;101419.41;10169576;28;20042;-64
2022/04/13 09:04:45;;;;;;;15.38;6.95;;;;;;;14.26;82.40;101423.56;10186190;28;20736;-63
2022/04/13 09:09:49;;;;;;;18.02;7.10;;;;;;;14.57;80.87;101428.06;10187915;28;20038;-62
2022/04/13 09:14:46;;;;;;;10.85;6.57;;;;;;;15.07;86.40;101432.13;10190158;28;20077;-62
2022/04/13 09:19:44;;;;;;;10.68;6.60;;;;;;;15.23;77.72;101443.41;10190578;28;20112;-63
2022/04/13 09:24:42;;;;;;;11.40;6.70;;;;;;;15.39;78.13;101432.59;10191055;28;20101;-62
2022/04/13 09:29:38;;;;;;;13.73;6.82;;;;;;;15.57;81.09;101440.44;10193068;28;20050;-62
2022/04/13 09:34:36;;;;;;;11.63;6.80;;;;;;;15.73;79.61;101443.47;10186529;28;20080;-62
2022/04/13 09:39:33;;;;;;;13.10;6.53;;;;;;;16.00;79.28;101449.56;10193443;28;20046;-61
2022/04/13 09:44:30;;;;;;;12.52;7.05;;;;;;;16.12;78.66;101437.78;10188733;28;20042;-62
2022/04/13 09:49:27;;;;;;;13.27;6.60;;;;;;;16.48;78.12;101439.91;10187226;28;20124;-62
2022/04/13 09:54:24;;;;;;;15.35;6.80;;;;;;;16.70;74.79;101437.88;10191288;28;20050;-62
2022/04/13 09:59:31;;;;;;;14.43;7.22;;;;;;;17.01;74.30;101449.25;10189064;28;20085;-62
2022/04/13 10:04:30;;;;;;;12.80;7.22;;;;;;;17.13;71.45;101442.91;10188343;28;20053;-63
2022/04/13 10:09:31;;;;;;;14.50;7.38;;;;;;;17.41;75.11;101443.00;10183341;28;20137;-62
2022/04/13 10:14:28;;;;;;;13.63;7.28;;;;;;;17.41;69.21;101437.50;10186414;28;20123;-62
2022/04/13 10:19:25;;;;;;;15.27;8.10;;;;;;;17.54;72.14;101445.75;10181853;28;20137;-62
2022/04/13 10:24:21;;;;;;;13.85;7.57;;;;;;;17.90;69.13;101444.94;10162177;28;20547;-63
2022/04/13 10:29:18;;;;;;;15.23;7.70;;;;;;;18.18;63.05;101431.09;10171346;28;20131;-62
2022/04/13 10:34:14;;;;;;;14.00;7.72;;;;;;;18.54;65.51;101437.59;10160167;28;20046;-62
2022/04/13 10:39:11;;;;;;;17.77;7.63;;;;;;;19.70;61.33;101440.13;10160148;28;20116;-63
2022/04/13 10:44:07;;;;;;;14.20;7.45;;;;;;;20.25;58.84;101450.34;10156659;28;20143;-63
2022/04/13 10:49:09;;;;;;;14.30;7.63;;;;;;;20.85;55.33;101455.47;10158572;28;20119;-63
2022/04/13 10:54:07;;;;;;;17.42;8.63;;;;;;;21.35;53.41;101450.72;10155728;28;20042;-62
2022/04/13 10:59:24;;;;;;;15.43;8.40;;;;;;;21.78;49.60;101446.63;10157238;28;20153;-63
2022/04/13 11:04:22;;;;;;;43.65;9.68;;;;;;;21.89;47.31;101452.34;10140133;28;20100;-61
2022/04/13 11:09:41;;;;;;;21.00;8.70;;;;;;;22.58;48.36;101456.72;10155657;28;20042;-61
2022/04/13 11:14:50;;;;;;;15.32;8.35;;;;;;;22.83;47.11;101449.41;10156598;28;20157;-61
2022/04/13 11:19:48;;;;;;;22.92;9.40;;;;;;;22.74;45.83;101451.72;10156821;28;20149;-61
2022/04/13 11:24:48;;;;;;;22.05;9.85;;;;;;;22.93;46.51;101458.25;10154154;28;20149;-61
2022/04/13 11:29:57;;;;;;;15.98;8.43;;;;;;;23.21;45.36;101452.97;10157538;28;20050;-62
2022/04/13 11:34:53;;;;;;;20.90;9.95;;;;;;;23.07;45.67;101447.28;10159022;28;20148;-62
2022/04/13 11:39:57;;;;;;;21.77;10.70;;;;;;;23.01;46.18;101448.81;10155628;28;20141;-62
2022/04/13 11:45:20;;;;;;;26.33;10.27;;;;;;;22.80;45.82;101452.97;10156772;28;20092;-62
2022/04/13 11:50:17;;;;;;;26.08;12.52;;;;;;;23.02;47.82;101450.41;10154684;28;20056;-62
2022/04/13 11:55:19;;;;;;;24.13;11.80;;;;;;;22.82;46.08;101442.25;10152004;28;20100;-62
2022/04/13 12:00:36;;;;;;;24.33;12.27;;;;;;;23.06;45.74;101445.66;10153008;28;20157;-62
2022/04/13 12:05:36;;;;;;;25.45;12.20;;;;;;;23.23;45.72;101442.22;10149631;28;20492;-62
2022/04/13 12:10:36;;;;;;;27.70;13.48;;;;;;;23.57;46.35;101442.03;10156582;28;20077;-62
2022/04/13 12:15:50;;;;;;;28.60;12.55;;;;;;;23.92;46.65;101437.84;10159659;28;20523;-62
2022/04/13 12:20:48;;;;;;;30.25;12.63;;;;;;;24.28;45.05;101449.16;10157441;28;20885;-62
2022/04/13 12:25:46;;;;;;;27.17;11.65;;;;;;;24.33;44.66;101437.59;10156217;28;20128;-63
2022/04/13 12:30:42;;;;;;;25.02;11.18;;;;;;;24.44;44.47;101432.03;10154578;28;20121;-62
2022/04/13 12:36:06;;;;;;;26.95;11.80;;;;;;;24.68;44.02;101441.69;10154711;28;20053;-63
2022/04/13 12:41:17;;;;;;;25.33;10.68;;;;;;;24.87;43.92;101444.09;10156238;28;20053;-62
2022/04/13 12:46:16;;;;;;;23.85;11.50;;;;;;;24.61;43.45;101442.47;10164565;28;20073;-62
2022/04/13 12:51:14;;;;;;;24.95;11.25;;;;;;;24.99;42.12;101443.72;10159231;28;20570;-62
2022/04/13 12:56:19;;;;;;;22.70;10.50;;;;;;;25.15;43.23;101442.50;10162317;28;20579;-62
2022/04/13 13:01:29;;;;;;;19.90;9.52;;;;;;;25.29;44.51;101442.50;10178735;28;20052;-63
2022/04/13 13:06:29;;;;;;;23.00;10.35;;;;;;;24.96;43.50;101447.28;10159599;28;20089;-62
2022/04/13 13:11:28;;;;;;;19.90;10.20;;;;;;;24.49;44.49;101445.66;10163243;28;20627;-64
2022/04/13 13:16:30;;;;;;;22.63;9.38;;;;;;;24.12;46.72;101439.13;10160499;28;20145;-62
2022/04/13 13:21:26;;;;;;;24.73;10.88;;;;;;;23.65;47.97;101449.25;10163198;28;20831;-62
2022/04/13 13:26:24;;;;;;;25.98;11.20;;;;;;;23.63;48.24;101443.25;10163981;28;20549;-62
2022/04/13 13:31:24;;;;;;;19.98;9.50;;;;;;;24.45;48.79;101442.81;10162142;28;20459;-62
2022/04/13 13:36:21;;;;;;;17.35;9.68;;;;;;;24.67;47.01;101448.47;10160655;28;20054;-65
2022/04/13 13:41:20;;;;;;;21.23;9.15;;;;;;;24.78;46.61;101446.47;10164459;28;20100;-62
2022/04/13 13:46:21;;;;;;;13.25;8.18;;;;;;;24.97;47.64;101448.91;10161974;28;20077;-62
2022/04/13 13:51:18;;;;;;;20.77;8.65;;;;;;;25.17;45.92;101452.09;10163570;28;20145;-62
2022/04/13 13:56:14;;;;;;;18.33;8.13;;;;;;;24.91;46.23;101450.50;10163544;28;20136;-62
2022/04/13 14:01:11;;;;;;;16.40;8.40;;;;;;;25.42;45.61;101451.28;10161485;28;20133;-62
2022/04/13 14:06:11;;;;;;;16.55;9.73;;;;;;;24.88;46.67;101456.91;10158602;28;20052;-62
2022/04/13 14:11:08;;;;;;;22.13;8.65;;;;;;;24.79;47.78;101453.69;10160133;28;20133;-62
2022/04/13 14:16:04;;;;;;;18.30;7.35;;;;;;;24.29;49.60;101464.72;10159257;28;20499;-62
2022/04/13 14:21:01;;;;;;;16.42;8.93;;;;;;;24.40;50.34;101459.19;10156855;28;20495;-62
2022/04/13 14:25:57;;;;;;;14.02;8.35;;;;;;;23.98;51.69;101469.81;10160000;28;20106;-62
2022/04/13 14:30:54;;;;;;;22.65;9.80;;;;;;;23.49;53.26;101471.88;10154348;28;20045;-63
2022/04/13 14:35:50;;;;;;;16.73;8.90;;;;;;;23.57;54.38;101475.53;10154423;28;20482;-63
2022/04/13 14:40:47;;;;;;;19.17;9.20;;;;;;;23.23;56.22;101472.09;10165428;28;20679;-62
2022/04/13 14:45:44;;;;;;;22.33;9.25;;;;;;;22.82;59.64;101458.97;10187015;28;20050;-61
2022/04/13 14:50:41;;;;;;;21.63;9.25;;;;;;;23.01;59.80;101471.13;10185122;28;20038;-61
2022/04/13 14:55:37;;;;;;;25.27;8.57;;;;;;;22.90;60.67;101466.19;10170970;28;20076;-61
2022/04/13 15:00:33;;;;;;;20.65;9.25;;;;;;;22.53;62.18;101473.78;10190832;28;20134;-62
2022/04/13 15:05:30;;;;;;;20.48;9.60;;;;;;;22.57;63.13;101474.66;10173501;28;20051;-61
2022/04/13 15:10:27;;;;;;;20.55;9.98;;;;;;;22.68;63.34;101473.56;10189952;28;20642;-62
2022/04/13 15:15:23;;;;;;;19.83;8.88;;;;;;;22.89;63.31;101467.41;10166261;28;20046;-61
2022/04/13 15:20:20;;;;;;;18.42;9.18;;;;;;;22.93;62.56;101477.78;10164411;28;20050;-62
2022/04/13 15:25:16;;;;;;;19.20;9.07;;;;;;;23.12;64.26;101477.59;10164862;28;20132;-61
2022/04/13 15:30:22;;;;;;;18.05;9.23;;;;;;;23.21;63.38;101486.44;10160451;28;20132;-61
2022/04/13 15:35:19;;;;;;;19.35;9.25;;;;;;;22.96;63.60;101485.38;10169083;28;20088;-62
2022/04/13 15:40:16;;;;;;;21.40;9.40;;;;;;;22.88;64.30;101478.94;10168649;28;20081;-62
2022/04/13 15:45:12;;;;;;;20.42;9.80;;;;;;;22.57;68.67;101491.38;10168709;28;20169;-62
2022/04/13 15:50:11;;;;;;;19.10;9.48;;;;;;;22.53;72.90;101501.66;10187833;28;20107;-62
2022/04/13 15:55:07;;;;;;;19.88;9.60;;;;;;;22.08;90.10;101495.13;10182356;28;20053;-62
2022/04/13 16:00:05;;;;;;;16.38;8.98;;;;;;;22.09;92.96;101499.50;10168817;28;20070;-62
2022/04/13 16:05:01;;;;;;;16.48;9.27;;;;;;;21.72;96.28;101511.31;10157482;28;20160;-62
2022/04/13 16:09:58;;;;;;;16.17;8.43;;;;;;;21.81;96.88;101523.00;10161820;28;20038;-62
2022/04/13 16:14:54;;;;;;;12.73;8.45;;;;;;;21.44;98.83;101529.19;10151352;28;20046;-62
2022/04/13 16:19:56;;;;;;;13.05;7.13;;;;;;;21.09;100.00;101535.72;10152086;28;20137;-63
2022/04/13 16:24:53;;;;;;;12.50;7.23;;;;;;;20.98;100.00;101531.97;10146112;28;20498;-63
2022/04/13 16:29:50;;;;;;;16.45;8.05;;;;;;;20.60;100.00;101551.06;10147323;28;20161;-62
2022/04/13 16:34:46;;;;;;;16.08;7.78;;;;;;;20.35;100.00;101547.78;10142966;28;20216;-62
2022/04/13 16:39:43;;;;;;;18.85;8.48;;;;;;;19.95;100.00;101548.88;10150068;28;20046;-62
2022/04/13 16:44:40;;;;;;;15.23;7.97;;;;;;;19.73;100.00;101563.44;10160676;28;20050;-62
2022/04/13 16:49:37;;;;;;;15.45;8.77;;;;;;;19.65;100.00;101573.50;10156417;28;20124;-62
2022/04/13 16:54:33;;;;;;;15.65;7.82;;;;;;;19.45;100.00;101571.84;10157629;28;20136;-63
2022/04/13 16:59:30;;;;;;;15.32;9.68;;;;;;;19.47;100.00;101578.63;10151083;28;20117;-64
2022/04/13 17:04:26;;;;;;;21.48;11.20;;;;;;;19.07;100.00;101576.78;10148173;28;20042;-64
2022/04/13 17:09:23;;;;;;;17.55;10.40;;;;;;;19.14;100.00;101576.97;10162387;28;20073;-63
2022/04/13 17:14:19;;;;;;;15.60;11.00;;;;;;;18.98;100.00;101578.91;10171518;28;20527;-62
2022/04/13 17:19:16;;;;;;;26.65;11.60;;;;;;;18.85;100.00;101596.78;10151922;28;20503;-63
2022/04/13 17:24:15;;;;;;;19.45;12.13;;;;;;;18.48;100.00;101599.66;10148041;28;20468;-63
2022/04/13 17:29:12;;;;;;;20.13;12.05;;;;;;;18.54;100.00;101598.22;10153629;28;20074;-63
2022/04/13 17:34:09;;;;;;;15.50;10.90;;;;;;;18.26;100.00;101604.53;10169725;28;20082;-62
2022/04/13 17:39:06;;;;;;;21.17;12.27;;;;;;;18.01;100.00;101619.53;10149840;28;20129;-62
2022/04/13 17:44:02;;;;;;;22.52;11.27;;;;;;;17.90;100.00;101618.41;10139564;28;20140;-63
2022/04/13 17:48:59;;;;;;;19.05;11.10;;;;;;;17.75;100.00;101620.66;10141185;28;20068;-62
2022/04/13 17:53:55;;;;;;;16.02;11.00;;;;;;;17.74;100.00;101638.41;10159053;28;20074;-61
2022/04/13 17:58:52;;;;;;;15.68;8.90;;;;;;;17.55;100.00;101657.53;10167083;28;20500;-62
2022/04/13 18:03:49;;;;;;;15.82;8.73;;;;;;;17.41;100.00;101653.09;10174206;28;20050;-62
2022/04/13 18:08:46;;;;;;;16.50;8.60;;;;;;;17.26;100.00;101667.56;10179291;28;20057;-62
2022/04/13 18:13:43;;;;;;;15.77;7.45;;;;;;;17.20;100.00;101657.88;10184284;28;20046;-62
2022/04/13 18:18:40;;;;;;;15.60;8.13;;;;;;;17.24;100.00;101650.50;10187890;28;20057;-62
2022/04/13 18:23:37;;;;;;;9.55;5.40;;;;;;;17.15;100.00;101656.16;10192651;28;20082;-61
2022/04/13 18:28:33;;;;;;;8.02;4.40;;;;;;;17.07;100.00;101659.78;10188964;28;20069;-62
2022/04/13 18:33:38;;;;;;;11.38;4.65;;;;;;;17.03;100.00;101670.72;10184352;28;20046;-62
2022/04/13 18:38:35;;;;;;;8.82;3.65;;;;;;;16.87;100.00;101661.41;10189441;28;20099;-62
2022/04/13 18:43:31;;;;;;;10.13;3.80;;;;;;;16.72;100.00;101675.81;10179728;28;20065;-62
2022/04/13 18:48:28;;;;;;;9.38;3.88;;;;;;;16.71;100.00;101691.56;10184130;28;20050;-62
2022/04/13 18:53:25;;;;;;;13.98;4.45;;;;;;;16.58;100.00;101698.97;10184538;28;20096;-62
2022/04/13 18:58:22;;;;;;;8.05;3.50;;;;;;;16.55;100.00;101696.06;10182154;28;20120;-61
2022/04/13 19:03:19;;;;;;;12.07;4.55;;;;;;;16.60;100.00;101696.69;10180251;28;20042;-61
2022/04/13 19:08:16;;;;;;;9.52;4.45;;;;;;;16.58;100.00;101693.44;10170511;28;20539;-61
2022/04/13 19:13:12;;;;;;;14.07;4.00;;;;;;;16.41;100.00;101693.56;10181730;28;20073;-63
2022/04/13 19:18:12;;;;;;;9.70;4.30;;;;;;;16.44;100.00;101709.44;10176300;28;20475;-64
2022/04/13 19:23:09;;;;;;;10.75;4.40;;;;;;;16.38;100.00;101708.00;10180492;28;20161;-61
2022/04/13 19:28:05;;;;;;;10.77;4.05;;;;;;;16.36;100.00;101713.06;10179141;28;20041;-63
2022/04/13 19:33:02;;;;;;;10.85;4.68;;;;;;;16.36;100.00;101713.06;10173092;28;20050;-65
2022/04/13 19:37:59;;;;;;;11.27;4.28;;;;;;;16.32;100.00;101714.88;10180402;28;20050;-63
2022/04/13 19:43:16;;;;;;;11.95;4.60;;;;;;;16.23;100.00;101719.63;10153299;28;20136;-64
2022/04/13 19:48:26;;;;;;;15.77;6.03;;;;;;;16.23;100.00;101733.44;10195364;28;20636;-65
2022/04/13 19:53:23;;;;;;;11.20;4.35;;;;;;;16.18;100.00;101740.75;10197541;28;20467;-65
2022/04/13 19:58:19;;;;;;;11.82;5.38;;;;;;;16.14;100.00;101739.78;10218557;28;20481;-64
2022/04/13 20:03:17;;;;;;;10.85;4.63;;;;;;;16.14;100.00;101711.38;10216067;28;20058;-64
2022/04/13 20:08:13;;;;;;;15.25;6.47;;;;;;;16.02;100.00;101725.88;10215447;28;20045;-64
2022/04/13 20:13:10;;;;;;;12.23;5.75;;;;;;;15.89;100.00;101743.44;10217346;28;20038;-66
2022/04/13 20:18:09;;;;;;;12.20;5.90;;;;;;;15.78;100.00;101771.38;10230071;28;20136;-63
2022/04/13 20:23:06;;;;;;;13.75;5.35;;;;;;;15.61;100.00;101754.81;10207751;28;20053;-64
2022/04/13 20:28:08;;;;;;;12.73;7.05;;;;;;;15.45;100.00;101795.84;10238614;28;20455;-63
2022/04/13 20:33:05;;;;;;;15.40;7.32;;;;;;;15.26;100.00;101785.16;10215240;28;20074;-62
2022/04/13 20:38:03;;;;;;;16.83;9.55;;;;;;;15.07;100.00;101759.88;10219940;28;20097;-62
2022/04/13 20:43:01;;;;;;;20.98;10.23;;;;;;;14.72;100.00;101839.66;10213602;28;20050;-63
2022/04/13 20:48:10;;;;;;;23.63;10.52;;;;;;;14.57;100.00;101820.81;10222485;28;20069;-64
2022/04/13 20:53:08;;;;;;;26.13;12.40;;;;;;;14.27;100.00;101823.22;10215088;28;20563;-61
2022/04/13 20:58:05;;;;;;;28.55;14.68;;;;;;;13.96;100.00;101851.53;10201976;28;20355;-61
2022/04/13 21:03:04;;;;;;;22.30;11.07;;;;;;;13.81;100.00;101833.50;10190275;28;20129;-61
2022/04/13 21:08:03;;;;;;;27.45;11.07;;;;;;;13.84;100.00;101821.84;10185017;28;20049;-62
2022/04/13 21:13:00;;;;;;;20.38;11.52;;;;;;;13.90;100.00;101819.78;10190067;28;20137;-64
2022/04/13 21:17:57;;;;;;;18.05;8.85;;;;;;;13.84;100.00;101834.78;10196921;28;20054;-62
2022/04/13 21:22:53;;;;;;;19.25;9.27;;;;;;;13.95;100.00;101830.66;10185020;28;20154;-62
2022/04/13 21:27:50;;;;;;;20.33;9.35;;;;;;;14.03;100.00;101840.91;10210371;28;20133;-62
2022/04/13 21:32:46;;;;;;;21.23;9.48;;;;;;;13.93;100.00;101824.66;10179610;28;20772;-61
2022/04/13 21:37:43;;;;;;;21.55;9.45;;;;;;;13.67;100.00;101835.50;10201309;28;20523;-63
2022/04/13 21:42:39;;;;;;;18.48;8.65;;;;;;;13.93;100.00;101829.38;10169323;28;20544;-63
2022/04/13 21:47:36;;;;;;;14.15;7.00;;;;;;;13.85;100.00;101833.66;10211108;28;20489;-63
2022/04/13 21:52:32;;;;;;;16.63;8.75;;;;;;;13.71;100.00;101827.41;10178352;28;20131;-62
2022/04/13 21:57:32;;;;;;;19.67;8.00;;;;;;;13.62;100.00;101819.94;10184322;28;20054;-62
2022/04/13 22:02:29;;;;;;;18.00;7.65;;;;;;;13.68;100.00;101846.16;10203075;28;20088;-63
2022/04/13 22:07:25;;;;;;;18.42;7.97;;;;;;;13.68;100.00;101846.16;10206324;28;20054;-62
2022/04/13 22:12:22;;;;;;;21.38;8.80;;;;;;;13.67;100.00;101860.22;10179947;28;20468;-61
2022/04/13 22:17:18;;;;;;;18.00;8.35;;;;;;;13.67;100.00;101860.22;10197085;28;20137;-62
2022/04/13 22:22:15;;;;;;;14.55;7.18;;;;;;;13.75;100.00;101858.66;10175746;28;20058;-61
2022/04/13 22:27:11;;;;;;;23.75;8.90;;;;;;;13.66;100.00;101858.59;10189832;28;20507;-61
2022/04/13 22:32:09;;;;;;;18.13;8.65;;;;;;;13.64;100.00;101823.16;10177575;28;20595;-61